sensor_id;sensor_type;location;lat;lon;timestamp;temperature;humidity
3330;DHT22;1677;49.576;10.990;2023-07-13T00:01:04;23.20;82.10
3330;DHT22;1677;49.576;10.990;2023-07-13T00:03:31;23.20;81.90
3330;DHT22;1677;49.576;10.990;2023-07-13T00:06:00;23.20;82.40
3330;DHT22;1677;49.576;10.990;2023-07-13T00:08:26;23.20;82.60
3330;DHT22;1677;49.576;10.990;2023-07-13T00:10:52;23.10;82.90
3330;DHT22;1677;49.576;10.990;2023-07-13T00:13:19;23.10;82.70
3330;DHT22;1677;49.576;10.990;2023-07-13T00:15:45;23.10;83.10
3330;DHT22;1677;49.576;10.990;2023-07-13T00:18:10;22.90;83.50
3330;DHT22;1677;49.576;10.990;2023-07-13T00:20:36;22.90;83.20
3330;DHT22;1677;49.576;10.990;2023-07-13T00:23:01;22.90;83.40
3330;DHT22;1677;49.576;10.990;2023-07-13T00:25:27;22.70;83.30
3330;DHT22;1677;49.576;10.990;2023-07-13T00:27:56;22.90;82.90
3330;DHT22;1677;49.576;10.990;2023-07-13T00:32:57;22.90;81.80
3330;DHT22;1677;49.576;10.990;2023-07-13T00:35:23;22.80;82.10
3330;DHT22;1677;49.576;10.990;2023-07-13T00:37:48;22.70;82.80
3330;DHT22;1677;49.576;10.990;2023-07-13T00:40:15;22.70;82.70
3330;DHT22;1677;49.576;10.990;2023-07-13T00:42:41;22.80;82.50
3330;DHT22;1677;49.576;10.990;2023-07-13T00:47:40;22.50;83.30
3330;DHT22;1677;49.576;10.990;2023-07-13T00:50:07;22.50;83.60
3330;DHT22;1677;49.576;10.990;2023-07-13T00:52:33;22.50;83.30
3330;DHT22;1677;49.576;10.990;2023-07-13T00:55:00;22.40;84.00
3330;DHT22;1677;49.576;10.990;2023-07-13T00:57:26;22.40;84.00
3330;DHT22;1677;49.576;10.990;2023-07-13T00:59:53;22.40;83.20
3330;DHT22;1677;49.576;10.990;2023-07-13T01:02:19;22.30;83.80
3330;DHT22;1677;49.576;10.990;2023-07-13T01:04:46;22.30;83.50
3330;DHT22;1677;49.576;10.990;2023-07-13T01:07:12;22.30;83.00
3330;DHT22;1677;49.576;10.990;2023-07-13T01:09:38;22.30;82.70
3330;DHT22;1677;49.576;10.990;2023-07-13T01:12:03;22.20;82.70
3330;DHT22;1677;49.576;10.990;2023-07-13T01:14:29;22.20;83.50
3330;DHT22;1677;49.576;10.990;2023-07-13T01:16:54;22.10;83.80
3330;DHT22;1677;49.576;10.990;2023-07-13T01:19:40;21.90;83.70
3330;DHT22;1677;49.576;10.990;2023-07-13T01:22:11;21.80;84.40
3330;DHT22;1677;49.576;10.990;2023-07-13T01:24:37;21.80;84.10
3330;DHT22;1677;49.576;10.990;2023-07-13T01:27:03;21.70;85.00
3330;DHT22;1677;49.576;10.990;2023-07-13T01:29:29;21.90;84.90
3330;DHT22;1677;49.576;10.990;2023-07-13T01:31:55;21.90;84.50
3330;DHT22;1677;49.576;10.990;2023-07-13T01:34:20;21.80;84.40
3330;DHT22;1677;49.576;10.990;2023-07-13T01:36:45;21.80;84.40
3330;DHT22;1677;49.576;10.990;2023-07-13T01:39:11;21.70;84.90
3330;DHT22;1677;49.576;10.990;2023-07-13T01:41:36;21.60;85.80
3330;DHT22;1677;49.576;10.990;2023-07-13T01:44:02;21.50;85.50
3330;DHT22;1677;49.576;10.990;2023-07-13T01:46:27;21.60;85.30
3330;DHT22;1677;49.576;10.990;2023-07-13T01:48:53;21.60;85.60
3330;DHT22;1677;49.576;10.990;2023-07-13T01:51:19;21.50;85.00
3330;DHT22;1677;49.576;10.990;2023-07-13T01:53:45;21.40;85.80
3330;DHT22;1677;49.576;10.990;2023-07-13T01:56:11;21.20;86.80
3330;DHT22;1677;49.576;10.990;2023-07-13T01:58:36;21.20;87.80
3330;DHT22;1677;49.576;10.990;2023-07-13T02:01:01;21.20;87.50
3330;DHT22;1677;49.576;10.990;2023-07-13T02:03:27;21.20;87.50
3330;DHT22;1677;49.576;10.990;2023-07-13T02:05:52;21.10;87.50
3330;DHT22;1677;49.576;10.990;2023-07-13T02:08:18;21.00;88.30
3330;DHT22;1677;49.576;10.990;2023-07-13T02:10:43;20.90;89.40
3330;DHT22;1677;49.576;10.990;2023-07-13T02:13:09;20.80;89.90
3330;DHT22;1677;49.576;10.990;2023-07-13T02:15:34;20.70;90.20
3330;DHT22;1677;49.576;10.990;2023-07-13T02:18:03;20.60;90.50
3330;DHT22;1677;49.576;10.990;2023-07-13T02:20:28;20.60;90.70
3330;DHT22;1677;49.576;10.990;2023-07-13T02:22:54;20.60;90.60
3330;DHT22;1677;49.576;10.990;2023-07-13T02:25:19;20.60;90.70
3330;DHT22;1677;49.576;10.990;2023-07-13T02:27:45;20.60;90.80
3330;DHT22;1677;49.576;10.990;2023-07-13T02:30:10;20.50;90.80
3330;DHT22;1677;49.576;10.990;2023-07-13T02:32:36;20.40;91.10
3330;DHT22;1677;49.576;10.990;2023-07-13T02:35:02;20.30;91.40
3330;DHT22;1677;49.576;10.990;2023-07-13T02:37:28;20.30;91.40
3330;DHT22;1677;49.576;10.990;2023-07-13T02:39:53;20.20;91.60
3330;DHT22;1677;49.576;10.990;2023-07-13T02:42:19;20.10;91.70
3330;DHT22;1677;49.576;10.990;2023-07-13T02:44:44;20.10;92.30
3330;DHT22;1677;49.576;10.990;2023-07-13T02:47:10;20.10;92.20
3330;DHT22;1677;49.576;10.990;2023-07-13T02:49:35;20.10;92.00
3330;DHT22;1677;49.576;10.990;2023-07-13T02:52:01;20.10;91.90
3330;DHT22;1677;49.576;10.990;2023-07-13T02:54:26;20.00;92.30
3330;DHT22;1677;49.576;10.990;2023-07-13T02:56:52;19.90;92.30
3330;DHT22;1677;49.576;10.990;2023-07-13T02:59:17;19.90;92.50
3330;DHT22;1677;49.576;10.990;2023-07-13T03:01:43;19.80;92.70
3330;DHT22;1677;49.576;10.990;2023-07-13T03:04:08;19.80;92.60
3330;DHT22;1677;49.576;10.990;2023-07-13T03:06:34;19.80;92.50
3330;DHT22;1677;49.576;10.990;2023-07-13T03:08:59;19.80;92.70
3330;DHT22;1677;49.576;10.990;2023-07-13T03:11:29;19.70;92.90
3330;DHT22;1677;49.576;10.990;2023-07-13T03:13:55;19.50;93.20
3330;DHT22;1677;49.576;10.990;2023-07-13T03:16:20;19.50;93.60
3330;DHT22;1677;49.576;10.990;2023-07-13T03:18:46;19.40;93.50
3330;DHT22;1677;49.576;10.990;2023-07-13T03:21:12;19.40;93.60
3330;DHT22;1677;49.576;10.990;2023-07-13T03:23:37;19.60;93.30
3330;DHT22;1677;49.576;10.990;2023-07-13T03:26:10;19.50;93.50
3330;DHT22;1677;49.576;10.990;2023-07-13T03:28:36;19.40;93.70
3330;DHT22;1677;49.576;10.990;2023-07-13T03:31:03;19.20;93.70
3330;DHT22;1677;49.576;10.990;2023-07-13T03:33:29;19.20;94.00
3330;DHT22;1677;49.576;10.990;2023-07-13T03:35:54;19.30;94.20
3330;DHT22;1677;49.576;10.990;2023-07-13T03:38:20;19.20;94.10
3330;DHT22;1677;49.576;10.990;2023-07-13T03:40:45;19.20;94.20
3330;DHT22;1677;49.576;10.990;2023-07-13T03:43:10;19.10;94.20
3330;DHT22;1677;49.576;10.990;2023-07-13T03:45:37;19.10;94.40
3330;DHT22;1677;49.576;10.990;2023-07-13T03:48:03;19.20;94.30
3330;DHT22;1677;49.576;10.990;2023-07-13T03:50:29;19.10;94.40
3330;DHT22;1677;49.576;10.990;2023-07-13T03:52:54;19.20;94.50
3330;DHT22;1677;49.576;10.990;2023-07-13T03:55:21;19.20;94.30
3330;DHT22;1677;49.576;10.990;2023-07-13T03:57:46;19.20;94.00
3330;DHT22;1677;49.576;10.990;2023-07-13T04:00:13;19.20;94.40
3330;DHT22;1677;49.576;10.990;2023-07-13T04:02:38;19.10;94.50
3330;DHT22;1677;49.576;10.990;2023-07-13T04:05:04;19.20;94.30
3330;DHT22;1677;49.576;10.990;2023-07-13T04:07:30;19.30;94.30
3330;DHT22;1677;49.576;10.990;2023-07-13T04:09:55;19.40;94.00
3330;DHT22;1677;49.576;10.990;2023-07-13T04:12:21;19.30;94.00
3330;DHT22;1677;49.576;10.990;2023-07-13T04:14:46;19.30;94.00
3330;DHT22;1677;49.576;10.990;2023-07-13T04:17:11;19.30;94.00
3330;DHT22;1677;49.576;10.990;2023-07-13T04:19:37;19.30;93.60
3330;DHT22;1677;49.576;10.990;2023-07-13T04:22:02;19.40;93.50
3330;DHT22;1677;49.576;10.990;2023-07-13T04:24:28;19.50;93.20
3330;DHT22;1677;49.576;10.990;2023-07-13T04:26:54;19.60;92.90
3330;DHT22;1677;49.576;10.990;2023-07-13T04:29:19;19.60;92.70
3330;DHT22;1677;49.576;10.990;2023-07-13T04:31:45;19.60;92.80
3330;DHT22;1677;49.576;10.990;2023-07-13T04:34:10;19.70;92.70
3330;DHT22;1677;49.576;10.990;2023-07-13T04:36:35;19.70;92.70
3330;DHT22;1677;49.576;10.990;2023-07-13T04:39:02;19.60;93.10
3330;DHT22;1677;49.576;10.990;2023-07-13T04:41:28;19.70;93.00
3330;DHT22;1677;49.576;10.990;2023-07-13T04:43:53;19.70;92.80
3330;DHT22;1677;49.576;10.990;2023-07-13T04:46:19;19.60;92.70
3330;DHT22;1677;49.576;10.990;2023-07-13T04:48:44;19.60;93.00
3330;DHT22;1677;49.576;10.990;2023-07-13T04:51:10;19.70;92.80
3330;DHT22;1677;49.576;10.990;2023-07-13T04:53:36;19.80;92.40
3330;DHT22;1677;49.576;10.990;2023-07-13T04:56:02;19.80;92.40
3330;DHT22;1677;49.576;10.990;2023-07-13T04:58:27;19.90;92.20
3330;DHT22;1677;49.576;10.990;2023-07-13T05:00:53;20.00;91.90
3330;DHT22;1677;49.576;10.990;2023-07-13T05:03:18;20.20;91.80
3330;DHT22;1677;49.576;10.990;2023-07-13T05:05:53;20.30;91.30
3330;DHT22;1677;49.576;10.990;2023-07-13T05:08:19;20.40;90.70
3330;DHT22;1677;49.576;10.990;2023-07-13T05:10:44;20.50;91.20
3330;DHT22;1677;49.576;10.990;2023-07-13T05:13:10;20.70;90.70
3330;DHT22;1677;49.576;10.990;2023-07-13T05:15:35;20.80;90.30
3330;DHT22;1677;49.576;10.990;2023-07-13T05:18:01;21.00;90.00
3330;DHT22;1677;49.576;10.990;2023-07-13T05:20:26;21.20;89.00
3330;DHT22;1677;49.576;10.990;2023-07-13T05:22:52;21.30;88.00
3330;DHT22;1677;49.576;10.990;2023-07-13T05:25:17;21.40;87.70
3330;DHT22;1677;49.576;10.990;2023-07-13T05:27:43;21.40;87.50
3330;DHT22;1677;49.576;10.990;2023-07-13T05:30:10;21.40;86.90
3330;DHT22;1677;49.576;10.990;2023-07-13T05:32:37;21.50;87.20
3330;DHT22;1677;49.576;10.990;2023-07-13T05:35:02;21.60;85.40
3330;DHT22;1677;49.576;10.990;2023-07-13T05:37:28;21.70;85.00
3330;DHT22;1677;49.576;10.990;2023-07-13T05:39:53;22.00;85.20
3330;DHT22;1677;49.576;10.990;2023-07-13T05:42:19;22.20;83.20
3330;DHT22;1677;49.576;10.990;2023-07-13T05:44:44;22.40;83.40
3330;DHT22;1677;49.576;10.990;2023-07-13T05:47:10;22.40;82.10
3330;DHT22;1677;49.576;10.990;2023-07-13T05:49:35;22.70;81.50
3330;DHT22;1677;49.576;10.990;2023-07-13T05:52:00;22.80;80.50
3330;DHT22;1677;49.576;10.990;2023-07-13T05:54:26;22.70;79.90
3330;DHT22;1677;49.576;10.990;2023-07-13T05:56:52;22.70;79.50
3330;DHT22;1677;49.576;10.990;2023-07-13T05:59:17;22.70;79.70
3330;DHT22;1677;49.576;10.990;2023-07-13T06:01:43;22.70;79.10
3330;DHT22;1677;49.576;10.990;2023-07-13T06:04:08;22.70;78.10
3330;DHT22;1677;49.576;10.990;2023-07-13T06:06:34;22.60;78.30
3330;DHT22;1677;49.576;10.990;2023-07-13T06:08:59;22.60;78.70
3330;DHT22;1677;49.576;10.990;2023-07-13T06:11:25;22.50;78.60
3330;DHT22;1677;49.576;10.990;2023-07-13T06:13:51;22.30;78.00
3330;DHT22;1677;49.576;10.990;2023-07-13T06:16:17;22.30;78.00
3330;DHT22;1677;49.576;10.990;2023-07-13T06:18:42;22.60;78.40
3330;DHT22;1677;49.576;10.990;2023-07-13T06:21:09;22.90;77.90
3330;DHT22;1677;49.576;10.990;2023-07-13T06:23:35;23.00;76.90
3330;DHT22;1677;49.576;10.990;2023-07-13T06:26:00;23.00;76.50
3330;DHT22;1677;49.576;10.990;2023-07-13T06:28:26;23.30;76.80
3330;DHT22;1677;49.576;10.990;2023-07-13T06:33:26;23.80;74.30
3330;DHT22;1677;49.576;10.990;2023-07-13T06:35:51;23.90;73.80
3330;DHT22;1677;49.576;10.990;2023-07-13T06:38:17;24.20;73.20
3330;DHT22;1677;49.576;10.990;2023-07-13T06:40:42;24.40;71.40
3330;DHT22;1677;49.576;10.990;2023-07-13T06:43:08;24.30;69.00
3330;DHT22;1677;49.576;10.990;2023-07-13T06:45:40;24.20;70.00
3330;DHT22;1677;49.576;10.990;2023-07-13T06:48:06;24.20;69.80
3330;DHT22;1677;49.576;10.990;2023-07-13T06:50:33;24.20;68.70
3330;DHT22;1677;49.576;10.990;2023-07-13T06:52:59;24.10;70.60
3330;DHT22;1677;49.576;10.990;2023-07-13T06:55:25;24.00;69.50
3330;DHT22;1677;49.576;10.990;2023-07-13T06:57:50;24.30;70.30
3330;DHT22;1677;49.576;10.990;2023-07-13T07:00:16;24.50;68.70
3330;DHT22;1677;49.576;10.990;2023-07-13T07:02:41;24.60;68.00
3330;DHT22;1677;49.576;10.990;2023-07-13T07:05:07;24.70;68.60
3330;DHT22;1677;49.576;10.990;2023-07-13T07:07:32;24.70;69.20
3330;DHT22;1677;49.576;10.990;2023-07-13T07:09:58;25.00;67.80
3330;DHT22;1677;49.576;10.990;2023-07-13T07:12:23;25.10;66.60
3330;DHT22;1677;49.576;10.990;2023-07-13T07:14:48;24.90;65.60
3330;DHT22;1677;49.576;10.990;2023-07-13T07:17:14;24.80;65.90
3330;DHT22;1677;49.576;10.990;2023-07-13T07:19:39;24.80;67.70
3330;DHT22;1677;49.576;10.990;2023-07-13T07:22:05;25.00;64.60
3330;DHT22;1677;49.576;10.990;2023-07-13T07:24:31;25.20;65.50
3330;DHT22;1677;49.576;10.990;2023-07-13T07:26:56;25.30;64.80
3330;DHT22;1677;49.576;10.990;2023-07-13T07:29:22;25.70;63.10
3330;DHT22;1677;49.576;10.990;2023-07-13T07:31:48;26.00;61.60
3330;DHT22;1677;49.576;10.990;2023-07-13T07:34:13;26.10;61.30
3330;DHT22;1677;49.576;10.990;2023-07-13T07:36:39;26.30;60.90
3330;DHT22;1677;49.576;10.990;2023-07-13T07:39:04;26.20;60.10
3330;DHT22;1677;49.576;10.990;2023-07-13T07:41:30;26.10;59.30
3330;DHT22;1677;49.576;10.990;2023-07-13T07:43:55;26.10;58.90
3330;DHT22;1677;49.576;10.990;2023-07-13T07:46:21;26.00;58.80
3330;DHT22;1677;49.576;10.990;2023-07-13T07:48:46;26.20;58.10
3330;DHT22;1677;49.576;10.990;2023-07-13T07:51:12;26.40;58.40
3330;DHT22;1677;49.576;10.990;2023-07-13T07:53:37;26.40;58.00
3330;DHT22;1677;49.576;10.990;2023-07-13T07:56:03;26.40;56.90
3330;DHT22;1677;49.576;10.990;2023-07-13T07:58:28;26.60;56.00
3330;DHT22;1677;49.576;10.990;2023-07-13T08:00:53;26.80;54.90
3330;DHT22;1677;49.576;10.990;2023-07-13T08:03:19;27.20;54.30
3330;DHT22;1677;49.576;10.990;2023-07-13T08:05:44;27.60;54.90
3330;DHT22;1677;49.576;10.990;2023-07-13T08:08:10;27.30;52.50
3330;DHT22;1677;49.576;10.990;2023-07-13T08:10:36;27.00;53.30
3330;DHT22;1677;49.576;10.990;2023-07-13T08:13:02;26.50;53.50
3330;DHT22;1677;49.576;10.990;2023-07-13T08:15:27;26.00;54.50
3330;DHT22;1677;49.576;10.990;2023-07-13T08:17:53;26.20;55.10
3330;DHT22;1677;49.576;10.990;2023-07-13T08:20:20;26.50;52.90
3330;DHT22;1677;49.576;10.990;2023-07-13T08:22:46;26.70;53.80
3330;DHT22;1677;49.576;10.990;2023-07-13T08:25:11;27.00;52.90
3330;DHT22;1677;49.576;10.990;2023-07-13T08:27:37;26.90;52.00
3330;DHT22;1677;49.576;10.990;2023-07-13T08:30:02;27.10;50.60
3330;DHT22;1677;49.576;10.990;2023-07-13T08:32:28;27.50;50.80
3330;DHT22;1677;49.576;10.990;2023-07-13T08:34:53;27.80;48.30
3330;DHT22;1677;49.576;10.990;2023-07-13T08:37:19;28.10;45.50
3330;DHT22;1677;49.576;10.990;2023-07-13T08:39:45;28.40;44.70
3330;DHT22;1677;49.576;10.990;2023-07-13T08:45:03;28.00;42.90
3330;DHT22;1677;49.576;10.990;2023-07-13T08:47:32;27.80;42.90
3330;DHT22;1677;49.576;10.990;2023-07-13T08:49:58;28.00;42.80
3330;DHT22;1677;49.576;10.990;2023-07-13T08:54:50;28.60;43.80
3330;DHT22;1677;49.576;10.990;2023-07-13T08:57:19;28.80;42.00
3330;DHT22;1677;49.576;10.990;2023-07-13T08:59:45;28.80;40.30
3330;DHT22;1677;49.576;10.990;2023-07-13T09:04:49;29.30;42.40
3330;DHT22;1677;49.576;10.990;2023-07-13T09:09:50;30.10;40.80
3330;DHT22;1677;49.576;10.990;2023-07-13T09:12:40;30.30;38.70
3330;DHT22;1677;49.576;10.990;2023-07-13T09:15:03;30.10;38.30
3330;DHT22;1677;49.576;10.990;2023-07-13T09:17:37;30.10;37.00
3330;DHT22;1677;49.576;10.990;2023-07-13T09:22:43;30.10;35.90
3330;DHT22;1677;49.576;10.990;2023-07-13T09:27:47;30.20;35.20
3330;DHT22;1677;49.576;10.990;2023-07-13T09:32:39;30.40;35.80
3330;DHT22;1677;49.576;10.990;2023-07-13T09:35:10;30.40;35.00
3330;DHT22;1677;49.576;10.990;2023-07-13T09:37:36;30.20;34.40
3330;DHT22;1677;49.576;10.990;2023-07-13T09:40:02;30.00;34.70
3330;DHT22;1677;49.576;10.990;2023-07-13T09:42:30;30.30;34.90
3330;DHT22;1677;49.576;10.990;2023-07-13T09:44:58;30.50;34.20
3330;DHT22;1677;49.576;10.990;2023-07-13T09:50:14;31.10;33.40
3330;DHT22;1677;49.576;10.990;2023-07-13T09:52:44;30.90;33.20
3330;DHT22;1677;49.576;10.990;2023-07-13T09:57:54;31.30;34.70
3330;DHT22;1677;49.576;10.990;2023-07-13T10:00:26;31.70;32.60
3330;DHT22;1677;49.576;10.990;2023-07-13T10:03:03;31.70;33.10
3330;DHT22;1677;49.576;10.990;2023-07-13T10:05:37;31.90;33.00
3330;DHT22;1677;49.576;10.990;2023-07-13T10:08:02;31.80;33.40
3330;DHT22;1677;49.576;10.990;2023-07-13T10:10:28;31.50;32.80
3330;DHT22;1677;49.576;10.990;2023-07-13T10:12:53;31.80;34.10
3330;DHT22;1677;49.576;10.990;2023-07-13T10:15:20;31.90;32.30
3330;DHT22;1677;49.576;10.990;2023-07-13T10:17:46;31.90;31.60
3330;DHT22;1677;49.576;10.990;2023-07-13T10:20:12;31.60;31.20
3330;DHT22;1677;49.576;10.990;2023-07-13T10:22:44;31.60;31.80
3330;DHT22;1677;49.576;10.990;2023-07-13T10:25:26;32.10;30.80
3330;DHT22;1677;49.576;10.990;2023-07-13T10:27:58;32.00;31.10
3330;DHT22;1677;49.576;10.990;2023-07-13T10:30:32;32.90;30.10
3330;DHT22;1677;49.576;10.990;2023-07-13T10:33:01;32.70;29.20
3330;DHT22;1677;49.576;10.990;2023-07-13T10:35:27;31.80;30.30
3330;DHT22;1677;49.576;10.990;2023-07-13T10:40:22;31.40;31.80
3330;DHT22;1677;49.576;10.990;2023-07-13T10:42:49;32.80;30.90
3330;DHT22;1677;49.576;10.990;2023-07-13T10:45:21;33.70;29.80
3330;DHT22;1677;49.576;10.990;2023-07-13T10:47:48;34.10;28.70
3330;DHT22;1677;49.576;10.990;2023-07-13T10:50:16;33.20;28.90
3330;DHT22;1677;49.576;10.990;2023-07-13T10:57:53;32.70;29.80
3330;DHT22;1677;49.576;10.990;2023-07-13T11:00:18;33.40;29.50
3330;DHT22;1677;49.576;10.990;2023-07-13T11:02:55;33.10;30.00
3330;DHT22;1677;49.576;10.990;2023-07-13T11:07:55;32.70;29.80
3330;DHT22;1677;49.576;10.990;2023-07-13T11:13:29;33.80;28.90
3330;DHT22;1677;49.576;10.990;2023-07-13T11:15:51;33.40;29.10
3330;DHT22;1677;49.576;10.990;2023-07-13T11:18:21;33.00;29.70
3330;DHT22;1677;49.576;10.990;2023-07-13T11:20:48;32.70;29.80
3330;DHT22;1677;49.576;10.990;2023-07-13T11:25:41;32.60;29.20
3330;DHT22;1677;49.576;10.990;2023-07-13T11:30:36;33.70;28.90
3330;DHT22;1677;49.576;10.990;2023-07-13T11:35:40;33.50;28.90
3330;DHT22;1677;49.576;10.990;2023-07-13T11:38:20;33.10;28.30
3330;DHT22;1677;49.576;10.990;2023-07-13T11:40:47;32.70;29.40
3330;DHT22;1677;49.576;10.990;2023-07-13T11:43:14;32.20;30.10
3330;DHT22;1677;49.576;10.990;2023-07-13T11:45:40;31.90;30.70
3330;DHT22;1677;49.576;10.990;2023-07-13T11:48:17;32.00;30.70
3330;DHT22;1677;49.576;10.990;2023-07-13T11:50:43;32.00;29.80
3330;DHT22;1677;49.576;10.990;2023-07-13T11:53:14;31.90;30.00
3330;DHT22;1677;49.576;10.990;2023-07-13T11:55:40;31.40;30.50
3330;DHT22;1677;49.576;10.990;2023-07-13T11:58:07;31.30;32.00
3330;DHT22;1677;49.576;10.990;2023-07-13T12:00:34;31.30;31.50
3330;DHT22;1677;49.576;10.990;2023-07-13T12:03:01;31.30;31.80
3330;DHT22;1677;49.576;10.990;2023-07-13T12:05:27;31.10;32.20
3330;DHT22;1677;49.576;10.990;2023-07-13T12:07:53;30.60;32.10
3330;DHT22;1677;49.576;10.990;2023-07-13T12:10:29;30.60;32.10
3330;DHT22;1677;49.576;10.990;2023-07-13T12:12:56;30.70;32.90
3330;DHT22;1677;49.576;10.990;2023-07-13T12:15:22;30.70;32.60
3330;DHT22;1677;49.576;10.990;2023-07-13T12:17:48;31.00;32.70
3330;DHT22;1677;49.576;10.990;2023-07-13T12:20:21;30.90;32.00
3330;DHT22;1677;49.576;10.990;2023-07-13T12:22:49;31.20;32.60
3330;DHT22;1677;49.576;10.990;2023-07-13T12:25:15;31.20;32.80
3330;DHT22;1677;49.576;10.990;2023-07-13T12:27:41;30.70;32.90
3330;DHT22;1677;49.576;10.990;2023-07-13T12:32:55;30.40;32.80
3330;DHT22;1677;49.576;10.990;2023-07-13T12:35:20;30.50;33.30
3330;DHT22;1677;49.576;10.990;2023-07-13T12:37:46;30.50;34.00
3330;DHT22;1677;49.576;10.990;2023-07-13T12:40:21;30.60;34.20
3330;DHT22;1677;49.576;10.990;2023-07-13T12:42:50;31.00;33.40
3330;DHT22;1677;49.576;10.990;2023-07-13T12:45:22;31.30;32.20
3330;DHT22;1677;49.576;10.990;2023-07-13T12:47:49;31.60;32.50
3330;DHT22;1677;49.576;10.990;2023-07-13T12:50:17;31.70;32.00
3330;DHT22;1677;49.576;10.990;2023-07-13T12:52:43;31.60;33.50
3330;DHT22;1677;49.576;10.990;2023-07-13T12:55:13;31.70;32.80
3330;DHT22;1677;49.576;10.990;2023-07-13T12:57:47;31.80;33.10
3330;DHT22;1677;49.576;10.990;2023-07-13T13:02:58;32.10;31.60
3330;DHT22;1677;49.576;10.990;2023-07-13T13:05:26;31.90;32.40
3330;DHT22;1677;49.576;10.990;2023-07-13T13:07:52;31.80;31.70
3330;DHT22;1677;49.576;10.990;2023-07-13T13:10:17;31.30;32.30
3330;DHT22;1677;49.576;10.990;2023-07-13T13:12:43;30.80;32.70
3330;DHT22;1677;49.576;10.990;2023-07-13T13:15:09;30.50;33.00
3330;DHT22;1677;49.576;10.990;2023-07-13T13:17:35;30.40;33.70
3330;DHT22;1677;49.576;10.990;2023-07-13T13:20:00;30.30;33.70
3330;DHT22;1677;49.576;10.990;2023-07-13T13:22:26;30.20;34.00
3330;DHT22;1677;49.576;10.990;2023-07-13T13:24:52;30.20;34.10
3330;DHT22;1677;49.576;10.990;2023-07-13T13:27:18;30.00;34.30
3330;DHT22;1677;49.576;10.990;2023-07-13T13:29:44;29.90;34.80
3330;DHT22;1677;49.576;10.990;2023-07-13T13:32:13;30.20;34.80
3330;DHT22;1677;49.576;10.990;2023-07-13T13:34:40;30.40;33.50
3330;DHT22;1677;49.576;10.990;2023-07-13T13:37:11;30.30;33.90
3330;DHT22;1677;49.576;10.990;2023-07-13T13:39:43;29.90;33.30
3330;DHT22;1677;49.576;10.990;2023-07-13T13:42:09;29.50;34.70
3330;DHT22;1677;49.576;10.990;2023-07-13T13:44:35;29.60;35.80
3330;DHT22;1677;49.576;10.990;2023-07-13T13:47:00;30.00;35.30
3330;DHT22;1677;49.576;10.990;2023-07-13T13:49:26;30.60;33.90
3330;DHT22;1677;49.576;10.990;2023-07-13T13:51:52;30.90;33.20
3330;DHT22;1677;49.576;10.990;2023-07-13T13:54:19;31.30;33.20
3330;DHT22;1677;49.576;10.990;2023-07-13T13:56:47;31.60;32.20
3330;DHT22;1677;49.576;10.990;2023-07-13T13:59:12;31.60;31.10
3330;DHT22;1677;49.576;10.990;2023-07-13T14:01:39;31.40;32.10
3330;DHT22;1677;49.576;10.990;2023-07-13T14:04:05;31.30;31.90
3330;DHT22;1677;49.576;10.990;2023-07-13T14:06:31;31.10;32.50
3330;DHT22;1677;49.576;10.990;2023-07-13T14:08:56;30.70;32.30
3330;DHT22;1677;49.576;10.990;2023-07-13T14:11:22;30.70;33.20
3330;DHT22;1677;49.576;10.990;2023-07-13T14:13:49;30.70;32.80
3330;DHT22;1677;49.576;10.990;2023-07-13T14:16:16;30.30;32.50
3330;DHT22;1677;49.576;10.990;2023-07-13T14:18:45;30.50;33.40
3330;DHT22;1677;49.576;10.990;2023-07-13T14:21:12;30.50;33.10
3330;DHT22;1677;49.576;10.990;2023-07-13T14:23:38;30.20;33.40
3330;DHT22;1677;49.576;10.990;2023-07-13T14:26:07;30.20;33.30
3330;DHT22;1677;49.576;10.990;2023-07-13T14:28:33;30.40;34.50
3330;DHT22;1677;49.576;10.990;2023-07-13T14:30:59;30.40;34.20
3330;DHT22;1677;49.576;10.990;2023-07-13T14:33:24;30.40;32.70
3330;DHT22;1677;49.576;10.990;2023-07-13T14:35:50;30.40;33.30
3330;DHT22;1677;49.576;10.990;2023-07-13T14:38:18;30.30;33.10
3330;DHT22;1677;49.576;10.990;2023-07-13T14:40:44;30.00;33.00
3330;DHT22;1677;49.576;10.990;2023-07-13T14:43:10;30.00;33.20
3330;DHT22;1677;49.576;10.990;2023-07-13T14:45:36;29.90;34.50
3330;DHT22;1677;49.576;10.990;2023-07-13T14:48:10;29.60;33.60
3330;DHT22;1677;49.576;10.990;2023-07-13T14:50:37;29.40;34.60
3330;DHT22;1677;49.576;10.990;2023-07-13T14:53:04;29.30;35.00
3330;DHT22;1677;49.576;10.990;2023-07-13T14:55:29;29.20;34.20
3330;DHT22;1677;49.576;10.990;2023-07-13T14:57:55;29.00;34.00
3330;DHT22;1677;49.576;10.990;2023-07-13T15:00:22;28.80;34.50
3330;DHT22;1677;49.576;10.990;2023-07-13T15:02:51;28.90;34.90
3330;DHT22;1677;49.576;10.990;2023-07-13T15:05:18;29.00;35.50
3330;DHT22;1677;49.576;10.990;2023-07-13T15:07:44;29.20;34.10
3330;DHT22;1677;49.576;10.990;2023-07-13T15:10:13;29.30;34.50
3330;DHT22;1677;49.576;10.990;2023-07-13T15:12:39;29.40;34.20
3330;DHT22;1677;49.576;10.990;2023-07-13T15:15:05;29.60;34.00
3330;DHT22;1677;49.576;10.990;2023-07-13T15:17:37;29.60;33.40
3330;DHT22;1677;49.576;10.990;2023-07-13T15:20:11;29.70;35.20
3330;DHT22;1677;49.576;10.990;2023-07-13T15:22:40;29.50;34.60
3330;DHT22;1677;49.576;10.990;2023-07-13T15:25:10;29.30;34.40
3330;DHT22;1677;49.576;10.990;2023-07-13T15:27:37;29.10;35.30
3330;DHT22;1677;49.576;10.990;2023-07-13T15:30:03;28.80;36.10
3330;DHT22;1677;49.576;10.990;2023-07-13T15:32:29;28.60;37.20
3330;DHT22;1677;49.576;10.990;2023-07-13T15:34:54;28.50;37.40
3330;DHT22;1677;49.576;10.990;2023-07-13T15:37:20;28.40;37.20
3330;DHT22;1677;49.576;10.990;2023-07-13T15:39:45;28.50;37.30
3330;DHT22;1677;49.576;10.990;2023-07-13T15:42:15;28.60;36.80
3330;DHT22;1677;49.576;10.990;2023-07-13T15:44:41;28.70;36.60
3330;DHT22;1677;49.576;10.990;2023-07-13T15:47:09;28.70;37.20
3330;DHT22;1677;49.576;10.990;2023-07-13T15:49:36;28.60;37.10
3330;DHT22;1677;49.576;10.990;2023-07-13T15:52:01;28.50;37.00
3330;DHT22;1677;49.576;10.990;2023-07-13T15:54:27;28.40;37.70
3330;DHT22;1677;49.576;10.990;2023-07-13T15:56:53;28.30;36.80
3330;DHT22;1677;49.576;10.990;2023-07-13T15:59:19;28.20;37.40
3330;DHT22;1677;49.576;10.990;2023-07-13T16:01:45;28.10;38.00
3330;DHT22;1677;49.576;10.990;2023-07-13T16:04:11;28.20;37.30
3330;DHT22;1677;49.576;10.990;2023-07-13T16:06:39;28.10;37.40
3330;DHT22;1677;49.576;10.990;2023-07-13T16:09:05;28.00;38.30
3330;DHT22;1677;49.576;10.990;2023-07-13T16:11:32;27.90;38.20
3330;DHT22;1677;49.576;10.990;2023-07-13T16:13:58;27.90;38.80
3330;DHT22;1677;49.576;10.990;2023-07-13T16:16:27;27.90;38.50
3330;DHT22;1677;49.576;10.990;2023-07-13T16:18:57;27.90;37.20
3330;DHT22;1677;49.576;10.990;2023-07-13T16:21:23;28.10;37.50
3330;DHT22;1677;49.576;10.990;2023-07-13T16:23:49;28.30;36.60
3330;DHT22;1677;49.576;10.990;2023-07-13T16:26:37;28.50;36.30
3330;DHT22;1677;49.576;10.990;2023-07-13T16:29:21;28.30;35.40
3330;DHT22;1677;49.576;10.990;2023-07-13T16:31:54;28.10;36.00
3330;DHT22;1677;49.576;10.990;2023-07-13T16:34:20;28.10;35.30
3330;DHT22;1677;49.576;10.990;2023-07-13T16:36:45;27.70;35.80
3330;DHT22;1677;49.576;10.990;2023-07-13T16:39:11;27.50;36.50